createdAt,value
2024-02-18T00:00:22.342Z,10.90
2024-02-18T00:02:49.730Z,11.00
2024-02-18T00:05:17.143Z,11.00
2024-02-18T00:07:44.832Z,11.00
2024-02-18T00:10:12.447Z,11.00
2024-02-18T00:12:40.036Z,10.90
2024-02-18T00:15:07.663Z,11.00
2024-02-18T00:17:35.299Z,11.00
2024-02-18T00:20:02.714Z,11.00
2024-02-18T00:22:30.114Z,10.90
2024-02-18T00:24:57.500Z,10.90
2024-02-18T00:27:25.004Z,11.00
2024-02-18T00:29:52.406Z,11.00
2024-02-18T00:32:19.744Z,11.00
2024-02-18T00:34:47.181Z,11.00
2024-02-18T00:37:14.593Z,11.00
2024-02-18T00:39:42.034Z,11.00
2024-02-18T00:42:11.341Z,11.00
2024-02-18T00:44:38.780Z,11.00
2024-02-18T00:47:06.472Z,11.00
2024-02-18T00:49:35.139Z,11.00
2024-02-18T00:52:03.874Z,11.00
2024-02-18T00:54:31.571Z,11.00
2024-02-18T00:56:59.339Z,11.00
2024-02-18T00:59:27.283Z,11.00
2024-02-18T01:01:54.870Z,11.00
2024-02-18T01:04:22.447Z,11.00
2024-02-18T01:06:49.971Z,11.00
2024-02-18T01:09:17.365Z,11.00
2024-02-18T01:11:44.810Z,11.00
2024-02-18T01:14:12.468Z,11.00
2024-02-18T01:16:40.742Z,11.00
2024-02-18T01:19:08.256Z,11.10
2024-02-18T01:21:35.753Z,11.10
2024-02-18T01:24:03.257Z,11.10
2024-02-18T01:26:30.584Z,11.10
2024-02-18T01:28:58.011Z,11.10
2024-02-18T01:31:25.342Z,11.00
2024-02-18T01:33:52.910Z,11.00
2024-02-18T01:36:20.378Z,11.10
2024-02-18T01:38:47.731Z,11.00
2024-02-18T01:41:15.284Z,11.00
2024-02-18T01:43:42.699Z,11.00
2024-02-18T01:46:10.374Z,11.00
2024-02-18T01:48:38.133Z,11.00
2024-02-18T01:51:07.197Z,11.00
2024-02-18T01:53:35.819Z,11.00
2024-02-18T01:56:04.113Z,11.00
2024-02-18T01:58:32.161Z,11.00
2024-02-18T02:00:59.767Z,10.90
2024-02-18T02:03:28.555Z,11.00
2024-02-18T02:05:56.036Z,11.00
2024-02-18T02:08:24.158Z,11.00
2024-02-18T02:10:52.355Z,11.00
2024-02-18T02:13:19.863Z,11.00
2024-02-18T02:15:47.396Z,11.10
2024-02-18T02:18:14.864Z,11.10
2024-02-18T02:20:42.310Z,11.00
2024-02-18T02:23:09.709Z,11.00
2024-02-18T02:25:37.098Z,11.00
2024-02-18T02:28:04.914Z,11.00
2024-02-18T02:30:32.742Z,11.00
2024-02-18T02:33:00.413Z,11.00
2024-02-18T02:35:28.735Z,10.90
2024-02-18T02:37:58.705Z,11.00
2024-02-18T02:40:27.099Z,11.00
2024-02-18T02:42:54.659Z,11.00
2024-02-18T02:45:22.211Z,10.90
2024-02-18T02:47:51.820Z,10.90
2024-02-18T02:50:19.600Z,10.90
2024-02-18T02:52:47.150Z,10.90
2024-02-18T02:55:14.906Z,10.90
2024-02-18T02:57:42.323Z,10.90
2024-02-18T03:00:12.997Z,10.90
2024-02-18T03:02:40.395Z,10.90
2024-02-18T03:05:08.493Z,10.90
2024-02-18T03:07:36.514Z,10.90
2024-02-18T03:10:04.857Z,10.90
2024-02-18T03:12:32.482Z,10.90
2024-02-18T03:14:59.998Z,10.90
2024-02-18T03:17:27.744Z,10.90
2024-02-18T03:19:55.843Z,10.90
2024-02-18T03:22:24.859Z,10.90
2024-02-18T03:24:52.856Z,10.90
2024-02-18T03:27:20.752Z,10.90
2024-02-18T03:29:48.369Z,10.90
2024-02-18T03:32:16.101Z,10.80
2024-02-18T03:34:44.309Z,10.90
2024-02-18T03:37:14.124Z,10.90
2024-02-18T03:39:42.046Z,10.90
2024-02-18T03:42:09.501Z,10.90
2024-02-18T03:44:37.001Z,10.90
2024-02-18T03:47:04.771Z,10.90
2024-02-18T03:49:32.212Z,10.90
2024-02-18T03:51:59.680Z,10.90
2024-02-18T03:54:27.866Z,10.90
2024-02-18T03:56:55.679Z,10.90
2024-02-18T03:59:23.267Z,10.90
2024-02-18T04:01:50.604Z,10.90
2024-02-18T04:04:17.990Z,10.90
2024-02-18T04:06:45.508Z,10.90
2024-02-18T04:09:13.040Z,10.90
2024-02-18T04:11:40.575Z,10.90
2024-02-18T04:14:08.762Z,10.90
2024-02-18T04:16:36.412Z,10.90
2024-02-18T04:19:04.196Z,10.90
2024-02-18T04:21:31.778Z,10.90
2024-02-18T04:23:59.194Z,10.80
2024-02-18T04:26:26.536Z,10.90
2024-02-18T04:28:53.885Z,10.90
2024-02-18T04:31:21.627Z,10.90
2024-02-18T04:33:49.115Z,10.90
2024-02-18T04:36:17.631Z,10.80
2024-02-18T04:38:50.895Z,10.80
2024-02-18T04:41:18.384Z,10.80
2024-02-18T04:43:45.726Z,10.80
2024-02-18T04:46:13.218Z,10.80
2024-02-18T04:48:40.996Z,10.90
2024-02-18T04:51:09.509Z,10.90
2024-02-18T04:53:36.909Z,10.80
2024-02-18T04:56:04.399Z,10.90
2024-02-18T04:58:31.760Z,10.80
2024-02-18T05:00:59.375Z,10.80
2024-02-18T05:03:26.907Z,10.80
2024-02-18T05:05:54.517Z,10.80
2024-02-18T05:08:21.947Z,10.80
2024-02-18T05:10:49.334Z,10.80
2024-02-18T05:13:16.679Z,10.80
2024-02-18T05:15:44.201Z,10.80
2024-02-18T05:18:11.649Z,10.80
2024-02-18T05:20:39.086Z,10.80
2024-02-18T05:23:15.194Z,10.80
2024-02-18T05:25:42.596Z,10.80
2024-02-18T05:28:10.007Z,10.70
2024-02-18T05:30:37.443Z,10.80
2024-02-18T05:33:05.101Z,10.80
2024-02-18T05:35:32.643Z,10.70
2024-02-18T05:38:00.176Z,10.70
2024-02-18T05:40:27.493Z,10.80
2024-02-18T05:42:54.871Z,10.80
2024-02-18T05:45:23.471Z,10.80
2024-02-18T05:47:51.123Z,10.80
2024-02-18T05:50:18.545Z,10.80
2024-02-18T05:52:46.059Z,10.70
2024-02-18T05:55:13.468Z,10.70
2024-02-18T05:57:40.867Z,10.70
2024-02-18T06:00:08.495Z,10.70
2024-02-18T06:02:35.906Z,10.70
2024-02-18T06:05:03.450Z,10.70
2024-02-18T06:07:30.991Z,10.80
2024-02-18T06:09:58.451Z,10.70
2024-02-18T06:12:25.830Z,10.70
2024-02-18T06:14:53.212Z,10.70
2024-02-18T06:17:20.573Z,10.70
2024-02-18T06:19:48.143Z,10.70
2024-02-18T06:22:15.751Z,10.70
2024-02-18T06:24:44.465Z,10.70
2024-02-18T06:27:11.990Z,10.70
2024-02-18T06:29:39.364Z,10.70
2024-02-18T06:32:06.956Z,10.70
2024-02-18T06:34:34.459Z,10.70
2024-02-18T06:37:01.978Z,10.70
2024-02-18T06:39:29.369Z,10.80
2024-02-18T06:41:56.709Z,10.80
2024-02-18T06:44:24.004Z,10.80
2024-02-18T06:46:52.727Z,10.80
2024-02-18T06:49:20.652Z,10.80
2024-02-18T06:51:48.225Z,10.80
2024-02-18T06:54:15.652Z,10.80
2024-02-18T06:56:43.093Z,10.80
2024-02-18T06:59:10.593Z,10.90
2024-02-18T07:01:38.069Z,10.80
2024-02-18T07:04:05.661Z,10.90
2024-02-18T07:06:33.257Z,10.90
2024-02-18T07:09:04.361Z,10.90
2024-02-18T07:11:32.269Z,10.90
2024-02-18T07:13:59.630Z,10.90
2024-02-18T07:16:27.098Z,10.90
2024-02-18T07:18:54.653Z,10.90
2024-02-18T07:21:22.117Z,10.90
2024-02-18T07:23:49.601Z,10.90
2024-02-18T07:26:16.977Z,10.90
2024-02-18T07:28:44.340Z,11.00
2024-02-18T07:31:11.758Z,11.00
2024-02-18T07:33:39.362Z,11.00
2024-02-18T07:36:07.055Z,11.00
2024-02-18T07:38:34.458Z,11.00
2024-02-18T07:41:01.794Z,11.00
2024-02-18T07:43:29.209Z,11.00
2024-02-18T07:45:56.608Z,11.10
2024-02-18T07:48:24.272Z,11.00
2024-02-18T07:50:51.744Z,11.10
2024-02-18T07:53:19.110Z,11.10
2024-02-18T07:55:46.480Z,11.10
2024-02-18T07:58:15.320Z,11.10
2024-02-18T08:00:43.416Z,11.10
2024-02-18T08:03:10.896Z,11.10
2024-02-18T08:05:38.615Z,11.20
2024-02-18T08:08:06.182Z,11.10
2024-02-18T08:10:33.681Z,11.10
2024-02-18T08:13:01.122Z,11.10
2024-02-18T08:15:28.753Z,11.10
2024-02-18T08:17:56.217Z,11.10
2024-02-18T08:20:23.685Z,11.10
2024-02-18T08:22:51.322Z,11.10
2024-02-18T08:25:18.812Z,11.10
2024-02-18T08:27:46.198Z,11.20
2024-02-18T08:30:14.265Z,11.10
2024-02-18T08:32:42.016Z,11.20
2024-02-18T08:35:09.658Z,11.20
2024-02-18T08:37:37.123Z,11.20
2024-02-18T08:40:04.975Z,11.40
2024-02-18T08:42:32.566Z,11.40
2024-02-18T08:45:00.148Z,11.40
2024-02-18T08:47:27.606Z,11.40
2024-02-18T08:49:55.316Z,11.40
2024-02-18T08:52:22.813Z,11.50
2024-02-18T08:54:50.204Z,11.30
2024-02-18T08:57:17.652Z,11.40
2024-02-18T08:59:45.005Z,11.40
2024-02-18T09:02:12.434Z,11.30
2024-02-18T09:04:40.141Z,11.30
2024-02-18T09:07:08.167Z,11.40
2024-02-18T09:09:35.615Z,11.40
2024-02-18T09:12:04.020Z,11.50
2024-02-18T09:14:31.365Z,11.50
2024-02-18T09:16:58.716Z,11.40
2024-02-18T09:19:26.565Z,11.40
2024-02-18T09:21:54.193Z,11.60
2024-02-18T09:24:21.675Z,11.60
2024-02-18T09:26:49.162Z,11.50
2024-02-18T09:29:16.520Z,11.50
2024-02-18T09:31:44.114Z,11.60
2024-02-18T09:34:12.013Z,11.60
2024-02-18T09:36:39.550Z,11.70
2024-02-18T09:39:06.893Z,11.80
2024-02-18T09:41:35.814Z,11.80
2024-02-18T09:44:08.905Z,11.80
2024-02-18T09:46:38.121Z,11.80
2024-02-18T09:49:08.768Z,11.80
2024-02-18T09:51:36.896Z,11.80
2024-02-18T09:54:08.032Z,11.80
2024-02-18T09:56:35.521Z,11.90
2024-02-18T09:59:04.306Z,11.90
2024-02-18T10:01:33.075Z,11.90
2024-02-18T10:04:01.039Z,11.90
2024-02-18T10:06:28.714Z,11.90
2024-02-18T10:08:56.547Z,12.00
2024-02-18T10:11:24.406Z,12.10
2024-02-18T10:13:57.244Z,12.10
2024-02-18T10:16:24.593Z,12.20
2024-02-18T10:18:53.825Z,12.20
2024-02-18T10:21:21.305Z,12.20
2024-02-18T10:23:50.606Z,12.20
2024-02-18T10:26:18.031Z,12.30
2024-02-18T10:28:45.390Z,12.40
2024-02-18T10:31:12.961Z,12.30
2024-02-18T10:33:40.971Z,12.40
2024-02-18T10:36:09.888Z,12.40
2024-02-18T10:38:44.281Z,12.40
2024-02-18T10:41:18.731Z,12.50
2024-02-18T10:43:53.247Z,12.50
2024-02-18T10:46:21.895Z,12.50
2024-02-18T10:48:50.882Z,12.60
2024-02-18T10:51:21.808Z,12.60
2024-02-18T10:53:51.542Z,12.70
2024-02-18T10:56:22.394Z,12.70
2024-02-18T10:58:55.573Z,12.70
2024-02-18T11:01:27.008Z,12.70
2024-02-18T11:03:59.096Z,12.70
2024-02-18T11:06:27.291Z,12.70
2024-02-18T11:08:55.265Z,12.80
2024-02-18T11:11:23.487Z,12.90
2024-02-18T11:13:51.881Z,12.80
2024-02-18T11:16:20.650Z,12.80
2024-02-18T11:18:48.769Z,12.90
2024-02-18T11:21:16.483Z,12.90
2024-02-18T11:24:01.973Z,13.00
2024-02-18T11:26:29.377Z,13.10
2024-02-18T11:29:00.258Z,13.10
2024-02-18T11:31:28.373Z,13.10
2024-02-18T11:33:56.080Z,13.10
2024-02-18T11:36:24.322Z,13.10
2024-02-18T11:38:55.810Z,13.10
2024-02-18T11:41:28.011Z,13.00
2024-02-18T11:43:55.962Z,13.00
2024-02-18T11:46:25.375Z,13.00
2024-02-18T11:48:53.515Z,13.10
2024-02-18T11:51:21.487Z,13.20
2024-02-18T11:53:49.218Z,13.20
2024-02-18T11:56:17.968Z,13.40
2024-02-18T11:58:47.531Z,13.50
2024-02-18T12:01:16.551Z,13.50
2024-02-18T12:03:48.667Z,13.60
2024-02-18T12:06:16.314Z,13.60
2024-02-18T12:08:43.678Z,13.60
2024-02-18T12:11:10.893Z,13.60
2024-02-18T12:13:38.354Z,13.60
2024-02-18T12:16:07.052Z,13.50
2024-02-18T12:18:34.647Z,13.60
2024-02-18T12:21:02.293Z,13.70
2024-02-18T12:23:29.836Z,13.60
2024-02-18T12:25:57.244Z,13.60
2024-02-18T12:28:24.815Z,13.60
2024-02-18T12:30:52.268Z,13.70
2024-02-18T12:33:20.772Z,13.70
2024-02-18T12:35:48.223Z,13.70
2024-02-18T12:38:15.715Z,13.70
2024-02-18T12:40:43.238Z,13.90
2024-02-18T12:43:38.932Z,13.90
2024-02-18T12:46:05.673Z,13.90
2024-02-18T12:48:36.163Z,13.90
2024-02-18T12:51:11.407Z,14.00
2024-02-18T12:53:39.886Z,14.50
2024-02-18T12:56:09.180Z,14.90
2024-02-18T12:58:39.626Z,15.10
2024-02-18T13:01:08.186Z,15.60
2024-02-18T13:03:36.702Z,15.60
2024-02-18T13:06:04.711Z,15.90
2024-02-18T13:08:33.825Z,15.90
2024-02-18T13:11:01.339Z,15.50
2024-02-18T13:13:29.251Z,15.20
2024-02-18T13:15:57.254Z,14.80
2024-02-18T13:18:26.542Z,14.80
2024-02-18T13:20:53.944Z,15.00
2024-02-18T13:23:21.502Z,15.50
2024-02-18T13:25:48.861Z,15.70
2024-02-18T13:28:18.550Z,15.60
2024-02-18T13:30:46.458Z,15.90
2024-02-18T13:33:14.250Z,15.60
2024-02-18T13:35:41.746Z,15.90
2024-02-18T13:38:09.304Z,16.30
2024-02-18T13:40:36.688Z,16.30
2024-02-18T13:43:04.669Z,16.50
2024-02-18T13:45:32.760Z,16.60
2024-02-18T13:48:01.888Z,17.00
2024-02-18T13:50:29.345Z,17.10
2024-02-18T13:52:57.682Z,17.20
2024-02-18T13:55:25.057Z,17.30
2024-02-18T13:57:52.949Z,17.40
2024-02-18T14:00:20.375Z,17.70
2024-02-18T14:02:48.311Z,17.60
2024-02-18T14:05:20.259Z,17.10
2024-02-18T14:07:48.095Z,16.50
2024-02-18T14:10:20.547Z,16.10
2024-02-18T14:12:48.199Z,15.90
2024-02-18T14:15:15.735Z,15.80
2024-02-18T14:17:43.630Z,15.70
2024-02-18T14:20:11.657Z,15.70
2024-02-18T14:22:39.494Z,15.80
2024-02-18T14:25:07.596Z,15.70
2024-02-18T14:27:35.424Z,15.60
2024-02-18T14:30:02.774Z,15.50
2024-02-18T14:32:30.353Z,15.30
2024-02-18T14:34:57.883Z,15.30
2024-02-18T14:37:26.710Z,15.20
2024-02-18T14:39:54.209Z,15.20
2024-02-18T14:42:21.680Z,15.20
2024-02-18T14:44:49.058Z,15.10
2024-02-18T14:47:16.381Z,15.10
2024-02-18T14:49:47.956Z,15.10
2024-02-18T14:52:15.947Z,15.10
2024-02-18T14:54:44.154Z,15.20
2024-02-18T14:57:11.567Z,15.10
2024-02-18T14:59:38.943Z,15.20
2024-02-18T15:02:06.377Z,15.30
2024-02-18T15:04:33.835Z,15.20
2024-02-18T15:07:01.333Z,15.20
2024-02-18T15:09:33.309Z,15.20
2024-02-18T15:12:00.748Z,15.10
2024-02-18T15:14:28.283Z,15.20
2024-02-18T15:16:56.949Z,15.30
2024-02-18T15:19:24.492Z,15.30
2024-02-18T15:21:52.003Z,15.30
2024-02-18T15:24:19.435Z,15.10
2024-02-18T15:26:46.801Z,15.00
2024-02-18T15:29:14.473Z,14.90
2024-02-18T15:31:41.879Z,14.80
2024-02-18T15:34:13.238Z,14.70
2024-02-18T15:36:43.855Z,14.50
2024-02-18T15:39:12.245Z,14.50
2024-02-18T15:41:39.613Z,14.40
2024-02-18T15:44:07.160Z,14.40
2024-02-18T15:46:34.489Z,14.30
2024-02-18T15:49:02.066Z,14.30
2024-02-18T15:51:29.542Z,14.30
2024-02-18T15:53:57.165Z,14.20
2024-02-18T15:56:25.279Z,14.30
2024-02-18T15:58:52.745Z,14.20
2024-02-18T16:01:20.392Z,14.30
2024-02-18T16:03:47.911Z,14.30
2024-02-18T16:06:15.403Z,14.20
2024-02-18T16:08:43.368Z,14.20
2024-02-18T16:11:12.319Z,14.20
2024-02-18T16:13:41.183Z,14.20
2024-02-18T16:16:08.924Z,14.20
2024-02-18T16:18:36.728Z,14.20
2024-02-18T16:21:04.536Z,14.20
2024-02-18T16:23:32.396Z,14.20
2024-02-18T16:26:00.860Z,14.20
2024-02-18T16:28:28.393Z,14.20
2024-02-18T16:30:55.745Z,14.20
2024-02-18T16:33:23.124Z,14.10
2024-02-18T16:35:50.466Z,14.00
2024-02-18T16:38:17.802Z,14.00
2024-02-18T16:40:45.393Z,14.00
2024-02-18T16:43:13.002Z,13.90
2024-02-18T16:45:40.589Z,13.90
2024-02-18T16:48:08.432Z,13.90
2024-02-18T16:50:37.354Z,13.80
2024-02-18T16:53:06.418Z,13.70
2024-02-18T16:55:33.843Z,13.80
2024-02-18T16:58:01.304Z,13.70
2024-02-18T17:00:29.786Z,13.70
2024-02-18T17:02:57.261Z,13.60
2024-02-18T17:05:25.291Z,13.60
2024-02-18T17:07:53.242Z,13.60
2024-02-18T17:10:21.193Z,13.50
2024-02-18T17:12:48.760Z,13.60
2024-02-18T17:15:16.184Z,13.60
2024-02-18T17:17:43.612Z,13.50
2024-02-18T17:20:14.726Z,13.50
2024-02-18T17:22:42.263Z,13.50
2024-02-18T17:25:09.950Z,13.50
2024-02-18T17:27:37.407Z,13.40
2024-02-18T17:30:05.133Z,13.40
2024-02-18T17:32:32.604Z,13.30
2024-02-18T17:35:05.350Z,13.30
2024-02-18T17:37:33.359Z,13.30
2024-02-18T17:40:00.851Z,13.20
2024-02-18T17:42:28.427Z,13.20
2024-02-18T17:44:55.786Z,13.20
2024-02-18T17:47:24.369Z,13.20
2024-02-18T17:49:51.908Z,13.10
2024-02-18T17:52:20.847Z,13.30
2024-02-18T17:54:48.290Z,13.40
2024-02-18T17:57:15.651Z,13.50
2024-02-18T17:59:42.993Z,13.60
2024-02-18T18:02:11.318Z,13.30
2024-02-18T18:04:38.913Z,13.30
2024-02-18T18:07:06.518Z,13.30
2024-02-18T18:09:33.975Z,13.40
2024-02-18T18:12:01.378Z,13.30
2024-02-18T18:14:28.794Z,13.10
2024-02-18T18:16:56.178Z,13.00
2024-02-18T18:19:24.526Z,13.00
2024-02-18T18:21:51.999Z,12.90
2024-02-18T18:24:19.546Z,12.80
2024-02-18T18:26:46.904Z,12.80
2024-02-18T18:29:18.526Z,12.70
2024-02-18T18:31:49.140Z,12.70
2024-02-18T18:34:16.653Z,12.70
2024-02-18T18:36:44.320Z,12.70
2024-02-18T18:39:11.798Z,12.60
2024-02-18T18:41:39.169Z,12.60
2024-02-18T18:44:06.541Z,12.70
2024-02-18T18:46:37.061Z,12.60
2024-02-18T18:49:04.606Z,12.70
2024-02-18T18:51:33.383Z,12.70
2024-02-18T18:54:01.288Z,12.60
2024-02-18T18:56:28.769Z,12.60
2024-02-18T18:58:56.227Z,12.60
2024-02-18T19:01:23.952Z,12.60
2024-02-18T19:03:51.652Z,12.60
2024-02-18T19:06:19.247Z,12.60
2024-02-18T19:08:46.827Z,12.60
2024-02-18T19:11:14.579Z,12.60
2024-02-18T19:13:44.021Z,12.60
2024-02-18T19:16:18.004Z,12.60
2024-02-18T19:18:53.723Z,12.60
2024-02-18T19:21:21.380Z,12.70
2024-02-18T19:23:48.805Z,12.70
2024-02-18T19:26:16.272Z,12.70
2024-02-18T19:28:44.189Z,12.70
2024-02-18T19:31:15.601Z,12.70
2024-02-18T19:33:45.780Z,12.70
2024-02-18T19:36:16.035Z,12.70
2024-02-18T19:38:44.527Z,12.70
2024-02-18T19:41:11.977Z,12.70
2024-02-18T19:43:39.296Z,12.70
2024-02-18T19:46:08.320Z,12.70
2024-02-18T19:48:35.908Z,12.70
2024-02-18T19:51:08.185Z,12.60
2024-02-18T19:53:35.532Z,12.60
2024-02-18T19:56:04.500Z,12.60
2024-02-18T19:58:31.858Z,12.60
2024-02-18T20:00:59.298Z,12.60
2024-02-18T20:03:28.987Z,12.50
2024-02-18T20:05:56.400Z,12.50
2024-02-18T20:08:23.796Z,12.50
2024-02-18T20:10:51.321Z,12.50
2024-02-18T20:13:18.733Z,12.40
2024-02-18T20:15:46.241Z,12.40
2024-02-18T20:18:13.783Z,12.50
2024-02-18T20:20:41.216Z,12.40
2024-02-18T20:23:08.577Z,12.40
2024-02-18T20:25:35.937Z,12.40
2024-02-18T20:28:03.700Z,12.30
2024-02-18T20:30:31.254Z,12.30
2024-02-18T20:33:00.195Z,12.20
2024-02-18T20:35:28.211Z,12.20
2024-02-18T20:37:55.616Z,12.20
2024-02-18T20:40:24.874Z,12.20
2024-02-18T20:42:53.847Z,12.10
2024-02-18T20:45:22.306Z,12.20
2024-02-18T20:47:49.765Z,12.20
2024-02-18T20:50:17.166Z,12.10
2024-02-18T20:52:44.566Z,12.10
2024-02-18T20:55:17.670Z,12.10
2024-02-18T20:57:45.450Z,12.00
2024-02-18T21:00:13.216Z,12.00
2024-02-18T21:02:41.305Z,12.10
2024-02-18T21:05:12.698Z,12.10
2024-02-18T21:07:40.651Z,12.10
2024-02-18T21:10:08.557Z,12.00
2024-02-18T21:12:35.996Z,12.00
2024-02-18T21:15:03.539Z,12.00
2024-02-18T21:17:30.958Z,12.00
2024-02-18T21:19:58.390Z,11.90
2024-02-18T21:22:25.959Z,12.00
2024-02-18T21:24:55.279Z,12.00
2024-02-18T21:27:24.252Z,12.00
2024-02-18T21:29:51.626Z,11.90
2024-02-18T21:32:19.078Z,11.90
2024-02-18T21:34:48.423Z,11.90
2024-02-18T21:37:16.012Z,11.80
2024-02-18T21:39:48.504Z,11.80
2024-02-18T21:42:17.027Z,11.80
2024-02-18T21:44:44.913Z,11.80
2024-02-18T21:47:12.366Z,11.80
2024-02-18T21:49:39.855Z,11.70
2024-02-18T21:52:07.254Z,11.70
2024-02-18T21:54:34.794Z,11.60
2024-02-18T21:57:02.183Z,11.60
2024-02-18T21:59:30.800Z,11.60
2024-02-18T22:01:58.323Z,11.50
2024-02-18T22:04:25.849Z,11.50
2024-02-18T22:07:04.990Z,11.50
2024-02-18T22:09:42.439Z,11.50
2024-02-18T22:12:09.930Z,11.50
2024-02-18T22:14:37.318Z,11.50
2024-02-18T22:17:04.672Z,11.40
2024-02-18T22:19:32.121Z,11.40
2024-02-18T22:21:59.639Z,11.40
2024-02-18T22:24:28.432Z,11.40
2024-02-18T22:26:55.813Z,11.40
2024-02-18T22:29:23.225Z,11.40
2024-02-18T22:31:50.679Z,11.40
2024-02-18T22:34:18.357Z,11.30
2024-02-18T22:36:45.938Z,11.30
2024-02-18T22:39:13.731Z,11.30
2024-02-18T22:41:44.670Z,11.30
2024-02-18T22:44:12.423Z,11.30
2024-02-18T22:46:39.852Z,11.30
2024-02-18T22:49:07.256Z,11.30
2024-02-18T22:51:36.038Z,11.30
2024-02-18T22:54:03.557Z,11.30
2024-02-18T22:56:30.984Z,11.20
2024-02-18T22:58:58.416Z,11.20
2024-02-18T23:01:31.222Z,11.20
2024-02-18T23:03:58.981Z,11.20
2024-02-18T23:06:32.252Z,11.20
2024-02-18T23:09:01.089Z,11.20
2024-02-18T23:11:28.564Z,11.20
2024-02-18T23:13:55.925Z,11.20
2024-02-18T23:16:23.387Z,11.10
2024-02-18T23:18:50.938Z,11.10
2024-02-18T23:21:18.412Z,11.10
2024-02-18T23:23:45.827Z,11.20
2024-02-18T23:26:13.371Z,11.20
2024-02-18T23:28:40.799Z,11.20
2024-02-18T23:31:08.315Z,11.20
2024-02-18T23:33:36.157Z,11.20
2024-02-18T23:36:04.211Z,11.30
2024-02-18T23:38:31.760Z,11.30
2024-02-18T23:41:03.168Z,11.30
2024-02-18T23:43:39.955Z,11.40
2024-02-18T23:46:08.279Z,11.30
2024-02-18T23:48:35.949Z,11.30
2024-02-18T23:51:04.150Z,11.20
2024-02-18T23:53:31.584Z,11.20
2024-02-18T23:55:58.957Z,11.20
2024-02-18T23:58:26.282Z,11.10
